Time;durP1;ratioP1;P1;durP2;ratioP2;P2;SDS_P1;SDS_P2;PMS_P1;PMS_P2;Temp;Humidity;BMP_temperature;BMP_pressure;BME280_temperature;BME280_humidity;BME280_pressure;Samples;Min_cycle;Max_cycle;Signal;HPM_P1;HPM_P2
2023/07/31 00:02:06;;;;;;;4.07;3.37;;;;;;;-143.84;95.92;45102.38;4989924;28;20485;-55
2023/07/31 00:04:34;;;;;;;4.07;2.63;;;;;;;-143.84;95.87;45087.16;4989737;28;20508;-55
2023/07/31 00:07:04;;;;;;;3.17;2.90;;;;;;;-143.84;95.93;45085.25;4989463;28;20920;-55
2023/07/31 00:09:31;;;;;;;2.40;2.23;;;;;;;-143.84;95.76;45102.38;4989670;28;20441;-55
2023/07/31 00:11:58;;;;;;;3.27;2.97;;;;;;;-143.84;96.18;45096.66;4989626;28;20437;-55
2023/07/31 00:14:25;;;;;;;4.60;2.60;;;;;;;-143.84;95.84;45098.56;4989777;28;20445;-55
2023/07/31 00:16:52;;;;;;;3.73;2.20;;;;;;;-143.84;95.99;45108.09;4989824;28;20499;-50
2023/07/31 00:19:19;;;;;;;5.73;2.90;;;;;;;-143.84;96.21;45098.56;4989844;28;20449;-49
2023/07/31 00:21:47;;;;;;;6.40;2.77;;;;;;;-143.84;96.17;45106.19;4989926;28;20931;-50
2023/07/31 00:24:15;;;;;;;6.90;2.50;;;;;;;-143.84;96.27;45110.00;4989549;28;21033;-49
2023/07/31 00:26:42;;;;;;;6.17;2.80;;;;;;;-143.84;96.42;45100.47;4989774;28;20939;-50
2023/07/31 00:29:09;;;;;;;6.57;2.50;;;;;;;-143.84;96.40;45123.34;4989861;28;20510;-49
2023/07/31 00:31:36;;;;;;;2.80;2.47;;;;;;;-143.84;96.43;45110.00;4989562;28;20520;-49
2023/07/31 00:34:03;;;;;;;6.80;2.90;;;;;;;-143.84;96.30;45100.47;4989562;28;20856;-49
2023/07/31 00:36:30;;;;;;;3.97;2.60;;;;;;;-143.84;96.24;45102.38;4989472;28;20441;-49
2023/07/31 00:38:58;;;;;;;2.70;2.50;;;;;;;-143.84;96.39;45125.22;4989873;28;20492;-49
2023/07/31 00:41:25;;;;;;;7.97;2.60;;;;;;;-143.84;96.21;45115.72;4989524;28;20585;-50
2023/07/31 00:43:53;;;;;;;2.67;2.47;;;;;;;-143.84;96.39;45098.56;4989702;28;20994;-49
2023/07/31 00:46:21;;;;;;;3.87;2.63;;;;;;;-143.84;96.22;45089.06;4989595;28;20531;-50
2023/07/31 00:48:48;;;;;;;3.83;3.03;;;;;;;-143.84;96.13;45106.19;4989297;28;20515;-49
2023/07/31 00:51:15;;;;;;;3.83;3.50;;;;;;;-143.84;96.21;45090.97;4988341;28;20436;-49
2023/07/31 00:53:43;;;;;;;4.03;2.63;;;;;;;-143.84;96.06;45106.19;4989184;28;20508;-49
2023/07/31 00:56:13;;;;;;;3.70;3.20;;;;;;;-143.84;95.84;45096.66;4989371;28;20959;-50
2023/07/31 00:58:40;;;;;;;2.83;2.43;;;;;;;-143.84;95.78;45098.56;4989610;28;20442;-54
2023/07/31 01:01:07;;;;;;;3.67;2.50;;;;;;;-143.84;95.82;45092.88;4991083;28;20480;-55
2023/07/31 01:03:34;;;;;;;9.17;2.70;;;;;;;-143.84;95.87;45115.72;4993287;28;20943;-55
2023/07/31 01:06:15;;;;;;;2.77;2.50;;;;;;;-143.84;95.81;45132.84;4992835;28;21080;-55
2023/07/31 01:08:52;;;;;;;6.50;2.90;;;;;;;-143.84;95.62;45081.44;4993266;28;20441;-55
2023/07/31 01:11:27;;;;;;;3.33;3.00;;;;;;;-143.84;95.82;45060.50;4993053;28;20484;-55
2023/07/31 01:13:55;;;;;;;3.73;2.70;;;;;;;-143.84;95.72;45096.66;4992934;28;20443;-55
2023/07/31 01:16:22;;;;;;;3.00;2.80;;;;;;;-143.84;95.87;45115.72;4992861;28;20539;-55
2023/07/31 01:18:49;;;;;;;7.23;3.30;;;;;;;-143.84;96.41;45094.78;4992807;28;20457;-55
2023/07/31 01:21:42;;;;;;;4.47;3.10;;;;;;;-143.84;96.29;45108.09;4992758;28;20503;-55
2023/07/31 01:24:21;;;;;;;3.20;2.73;;;;;;;-143.84;96.03;45090.97;4992724;28;20456;-55
2023/07/31 01:26:56;;;;;;;9.17;3.13;;;;;;;-143.84;96.07;45106.19;4993147;28;20452;-55
2023/07/31 01:29:33;;;;;;;4.17;2.93;;;;;;;-143.84;96.09;45110.00;4992668;28;20502;-55
2023/07/31 01:32:03;;;;;;;8.50;3.63;;;;;;;-143.84;96.27;45104.28;4992996;28;20456;-55
2023/07/31 01:34:32;;;;;;;3.53;2.60;;;;;;;-143.84;96.35;45098.56;4992496;28;20966;-55
2023/07/31 01:36:59;;;;;;;3.67;2.90;;;;;;;-143.84;96.05;45062.41;4992312;28;20453;-55
2023/07/31 01:39:26;;;;;;;6.43;3.23;;;;;;;-143.84;96.13;45113.81;4992613;28;20440;-55
2023/07/31 01:41:55;;;;;;;3.30;3.00;;;;;;;-143.84;96.33;45090.97;4992598;28;20481;-55
2023/07/31 01:44:22;;;;;;;6.97;2.80;;;;;;;-143.84;96.56;45106.19;4992513;28;20437;-55
2023/07/31 01:46:49;;;;;;;7.50;3.53;;;;;;;-143.84;96.56;45102.38;4992407;28;20457;-55
2023/07/31 01:49:16;;;;;;;5.20;3.30;;;;;;;-143.84;96.67;45108.09;4992059;28;20792;-55
2023/07/31 01:51:43;;;;;;;3.73;2.90;;;;;;;-143.84;96.83;45083.34;4992562;28;20511;-58
2023/07/31 01:54:11;;;;;;;2.87;2.67;;;;;;;-143.84;96.78;45127.13;4992537;28;20448;-58
2023/07/31 01:56:38;;;;;;;7.53;2.53;;;;;;;-143.84;96.52;45085.25;4992614;28;20449;-58
2023/07/31 01:59:06;;;;;;;3.93;3.63;;;;;;;-143.84;96.67;45113.81;4992123;28;20442;-58
2023/07/31 02:01:33;;;;;;;2.87;2.63;;;;;;;-143.84;96.51;45079.53;4991328;28;20464;-58
2023/07/31 02:04:01;;;;;;;4.50;3.07;;;;;;;-143.84;96.72;45104.28;4991692;28;20449;-58
2023/07/31 02:06:28;;;;;;;4.00;3.33;;;;;;;-143.84;96.70;45110.00;4991696;28;20489;-58
2023/07/31 02:08:55;;;;;;;6.90;2.90;;;;;;;-143.84;97.15;45134.75;4992400;28;20518;-58
2023/07/31 02:11:22;;;;;;;2.90;2.63;;;;;;;-143.84;96.70;45111.91;4992056;28;20449;-58
2023/07/31 02:13:49;;;;;;;10.27;2.60;;;;;;;-143.84;97.05;45094.78;4991559;28;20543;-58
2023/07/31 02:16:18;;;;;;;3.83;2.57;;;;;;;-143.84;96.59;45117.63;4992715;28;20484;-58
2023/07/31 02:18:45;;;;;;;2.70;2.23;;;;;;;-143.84;96.78;45089.06;4992368;28;20445;-58
2023/07/31 02:21:12;;;;;;;3.87;2.40;;;;;;;-143.84;97.07;45132.84;4992290;28;20440;-58
2023/07/31 02:23:39;;;;;;;2.93;2.73;;;;;;;-143.84;97.35;45092.88;4992277;28;20480;-58
2023/07/31 02:26:05;;;;;;;3.93;2.70;;;;;;;-143.84;97.29;45127.13;4991648;28;20814;-58
2023/07/31 02:28:32;;;;;;;5.00;2.57;;;;;;;-143.84;96.93;45106.19;4991798;28;20543;-58
2023/07/31 02:31:00;;;;;;;2.53;2.33;;;;;;;-143.84;96.92;45094.78;4992035;28;20452;-58
2023/07/31 02:33:28;;;;;;;4.00;2.87;;;;;;;-143.84;96.55;45125.22;4991792;28;20505;-58
2023/07/31 02:35:55;;;;;;;5.17;2.80;;;;;;;-143.84;96.40;45129.03;4991686;28;20938;-58
2023/07/31 02:38:22;;;;;;;2.90;2.67;;;;;;;-143.84;96.38;45098.56;4991803;28;20437;-58
2023/07/31 02:40:49;;;;;;;3.00;2.77;;;;;;;-143.84;96.30;45138.56;4991507;28;20511;-50
2023/07/31 02:43:16;;;;;;;4.13;2.70;;;;;;;-143.84;96.34;45108.09;4991172;28;20486;-49
2023/07/31 02:45:44;;;;;;;5.27;2.43;;;;;;;-143.84;95.81;45125.22;4991650;28;20884;-58
2023/07/31 02:48:11;;;;;;;2.83;2.63;;;;;;;-143.84;95.76;45132.84;4991392;28;20436;-58
2023/07/31 02:50:39;;;;;;;2.17;2.07;;;;;;;-143.84;95.47;45132.84;4991560;28;20449;-58
2023/07/31 02:53:06;;;;;;;2.30;2.10;;;;;;;-143.84;95.20;45117.63;4991421;28;20484;-58
2023/07/31 02:55:33;;;;;;;3.47;2.40;;;;;;;-143.84;94.35;45108.09;4991051;28;20441;-58
2023/07/31 02:58:00;;;;;;;8.20;2.67;;;;;;;-143.84;94.19;45106.19;4991340;28;20448;-58
2023/07/31 03:00:28;;;;;;;4.20;1.70;;;;;;;-143.84;93.87;45113.81;4991207;28;20449;-58
2023/07/31 03:02:55;;;;;;;4.50;2.27;;;;;;;-143.84;93.39;45098.56;4991089;28;20481;-58
2023/07/31 03:05:22;;;;;;;2.33;2.13;;;;;;;-143.84;92.71;45108.09;4991091;28;20592;-58
2023/07/31 03:07:50;;;;;;;4.43;2.40;;;;;;;-143.84;92.47;45113.81;4991134;28;20461;-58
2023/07/31 03:10:17;;;;;;;1.80;1.70;;;;;;;-143.84;90.55;45110.00;4990072;28;20504;-58
2023/07/31 03:12:48;;;;;;;2.30;2.10;;;;;;;-143.84;89.61;45117.63;4990289;28;20472;-58
2023/07/31 03:15:15;;;;;;;2.70;2.20;;;;;;;-143.84;88.36;45071.91;4990936;28;20433;-58
2023/07/31 03:17:42;;;;;;;2.73;1.70;;;;;;;-143.84;88.46;45098.56;4991097;28;20500;-58
2023/07/31 03:20:10;;;;;;;12.00;2.10;;;;;;;-143.84;89.21;45123.34;4991135;28;20479;-58
2023/07/31 03:22:37;;;;;;;3.13;2.10;;;;;;;-143.84;90.16;45117.63;4990625;28;20488;-58
2023/07/31 03:25:07;;;;;;;2.30;2.07;;;;;;;-143.84;90.46;45108.09;4990648;28;20857;-58
2023/07/31 03:27:34;;;;;;;2.43;2.10;;;;;;;-143.84;90.63;45106.19;4990949;28;20508;-58
2023/07/31 03:30:01;;;;;;;2.70;2.50;;;;;;;-143.84;90.78;45111.91;4990440;28;20487;-58
2023/07/31 03:32:29;;;;;;;5.73;2.50;;;;;;;-143.84;90.92;45117.63;4990303;28;20445;-58
2023/07/31 03:34:56;;;;;;;6.93;2.70;;;;;;;-143.84;91.09;45108.09;4990561;28;20453;-58
2023/07/31 03:37:23;;;;;;;2.73;1.97;;;;;;;-143.84;90.83;45098.56;4990376;28;20487;-58
2023/07/31 03:39:50;;;;;;;2.27;2.17;;;;;;;-143.84;90.83;45106.19;4990335;28;20450;-58
2023/07/31 03:42:18;;;;;;;2.43;2.20;;;;;;;-143.84;90.35;45108.09;4990210;28;20545;-58
2023/07/31 03:44:46;;;;;;;2.30;2.10;;;;;;;-143.84;90.13;45098.56;4990639;28;20464;-58
2023/07/31 03:47:13;;;;;;;3.27;2.27;;;;;;;-143.84;87.77;45083.34;4990066;28;20835;-49
2023/07/31 03:49:40;;;;;;;2.10;1.90;;;;;;;-143.84;85.66;45090.97;4990078;28;20447;-50
2023/07/31 03:52:08;;;;;;;2.23;2.03;;;;;;;-143.84;83.83;45068.13;4990264;28;20477;-49
2023/07/31 03:54:35;;;;;;;2.20;2.00;;;;;;;-143.84;82.10;45100.47;4990123;28;20436;-49
2023/07/31 03:57:02;;;;;;;17.30;1.77;;;;;;;-143.84;82.85;45092.88;4990286;28;20945;-50
2023/07/31 03:59:31;;;;;;;3.50;1.83;;;;;;;-143.84;82.81;45096.66;4990324;28;20451;-49
2023/07/31 04:01:58;;;;;;;3.50;2.10;;;;;;;-143.84;82.90;45087.16;4989676;28;20454;-49
2023/07/31 04:04:25;;;;;;;2.80;1.70;;;;;;;-143.84;82.78;45081.44;4990002;28;20443;-49
2023/07/31 04:06:53;;;;;;;2.10;1.90;;;;;;;-143.84;81.97;45071.91;4989749;28;20549;-50
2023/07/31 04:09:20;;;;;;;2.67;1.40;;;;;;;-143.84;80.13;45106.19;4990175;28;20961;-50
2023/07/31 04:11:47;;;;;;;2.80;1.53;;;;;;;-143.84;78.97;45056.69;4990616;28;20537;-50
2023/07/31 04:14:15;;;;;;;2.50;1.77;;;;;;;-143.84;77.24;45090.97;4990183;28;20506;-50
2023/07/31 04:16:43;;;;;;;1.83;1.50;;;;;;;-143.84;75.67;45083.34;4989846;28;20439;-49
2023/07/31 04:19:11;;;;;;;4.70;1.73;;;;;;;-143.84;73.67;45058.59;4990010;28;20682;-50
2023/07/31 04:21:39;;;;;;;1.77;1.23;;;;;;;-143.84;71.32;45083.34;4989757;28;20484;-50
2023/07/31 04:24:06;;;;;;;3.17;1.77;;;;;;;-143.84;68.34;45041.44;4989352;28;20479;-50
2023/07/31 04:26:33;;;;;;;9.53;2.03;;;;;;;-143.84;65.16;45062.41;4989632;28;20480;-50
2023/07/31 04:29:00;;;;;;;3.67;1.80;;;;;;;-143.84;61.86;45071.91;4989156;28;20939;-51
2023/07/31 04:31:27;;;;;;;2.13;1.63;;;;;;;-143.84;61.39;45049.06;4989867;28;20517;-50
2023/07/31 04:33:56;;;;;;;1.67;1.33;;;;;;;-143.84;62.21;45045.25;4990631;28;20471;-50
2023/07/31 04:36:23;;;;;;;2.37;1.67;;;;;;;-143.84;62.26;45056.69;4997506;28;20540;-50
2023/07/31 04:38:52;;;;;;;4.67;1.53;;;;;;;-143.84;62.62;45041.44;4999077;28;20444;-50
2023/07/31 04:41:21;;;;;;;2.23;1.63;;;;;;;-143.84;58.59;45068.13;4998995;28;20444;-50
2023/07/31 04:43:49;;;;;;;2.13;1.53;;;;;;;-143.84;55.59;45014.78;5000208;28;20883;-50
2023/07/31 04:46:21;;;;;;;1.80;1.70;;;;;;;-143.84;55.63;45024.31;4999479;28;21421;-50
2023/07/31 04:48:55;;;;;;;3.53;1.80;;;;;;;-143.84;55.12;45043.34;4997741;28;20483;-50
2023/07/31 04:51:25;;;;;;;1.70;1.60;;;;;;;-143.84;55.93;45031.94;4996686;28;20952;-50
2023/07/31 04:53:52;;;;;;;3.30;1.80;;;;;;;-143.84;56.45;45012.88;4998299;28;20570;-50
2023/07/31 04:56:24;;;;;;;2.90;1.90;;;;;;;-143.84;57.65;45028.13;4997828;28;20499;-50
2023/07/31 04:58:54;;;;;;;4.13;1.90;;;;;;;-143.84;59.68;45033.84;4997938;28;21180;-51
2023/07/31 05:01:29;;;;;;;6.73;2.03;;;;;;;-143.84;60.33;45028.13;4998801;28;20520;-51
2023/07/31 05:03:57;;;;;;;7.23;2.20;;;;;;;-143.84;60.55;45049.06;4999789;28;20901;-49
2023/07/31 05:06:26;;;;;;;8.87;2.07;;;;;;;-143.84;60.56;45033.84;4999205;28;20488;-50
2023/07/31 05:08:54;;;;;;;5.00;2.50;;;;;;;-143.84;58.99;45031.94;4999854;28;20857;-51
2023/07/31 05:11:22;;;;;;;7.00;3.30;;;;;;;-143.84;55.69;45033.84;4999621;28;20443;-50
2023/07/31 05:13:49;;;;;;;4.17;2.53;;;;;;;-143.84;52.13;45010.97;4999818;28;20441;-49
2023/07/31 05:16:18;;;;;;;2.73;2.37;;;;;;;-143.84;49.65;45039.53;5000177;28;20442;-54
2023/07/31 05:18:45;;;;;;;2.90;2.47;;;;;;;-143.84;47.48;45022.41;5001511;28;20447;-55
2023/07/31 05:21:13;;;;;;;8.53;2.80;;;;;;;-143.84;47.73;44988.13;5000542;28;20479;-55
2023/07/31 05:23:43;;;;;;;5.43;2.17;;;;;;;-143.84;47.77;44986.22;5000504;28;20484;-55
2023/07/31 05:26:10;;;;;;;4.00;2.30;;;;;;;-143.84;46.17;45005.28;4999081;28;20857;-55
2023/07/31 05:28:41;;;;;;;3.10;2.40;;;;;;;-143.84;45.15;44946.25;5000293;28;20855;-55
2023/07/31 05:31:12;;;;;;;2.60;2.40;;;;;;;-143.84;44.92;44963.38;4999121;28;20980;-55
2023/07/31 05:33:42;;;;;;;2.73;2.53;;;;;;;-143.84;43.45;44969.09;4994450;28;20527;-55
2023/07/31 05:36:10;;;;;;;3.17;2.87;;;;;;;-143.84;42.74;44961.47;4995784;28;20464;-55
2023/07/31 05:38:38;;;;;;;4.97;3.57;;;;;;;-143.84;41.84;44961.47;4995548;28;20441;-55
2023/07/31 05:41:07;;;;;;;3.43;3.20;;;;;;;-143.84;42.22;44934.81;4995721;28;20440;-55
2023/07/31 05:43:34;;;;;;;3.67;3.33;;;;;;;-143.84;42.05;44990.03;4995752;28;20572;-55
2023/07/31 05:46:01;;;;;;;3.07;2.77;;;;;;;-143.84;42.33;44991.94;4995175;28;20496;-55
2023/07/31 05:48:28;;;;;;;5.67;3.30;;;;;;;-143.84;42.54;44950.06;4992605;28;20528;-49
2023/07/31 05:50:56;;;;;;;3.40;3.20;;;;;;;-143.84;41.75;44961.47;4992992;28;20449;-49
2023/07/31 05:53:23;;;;;;;5.30;3.33;;;;;;;-143.84;41.66;44963.38;4992496;28;20528;-50
2023/07/31 05:55:50;;;;;;;3.83;2.90;;;;;;;-143.84;42.08;44938.63;4991967;28;20445;-54
2023/07/31 05:58:18;;;;;;;3.17;2.93;;;;;;;-143.84;42.25;44988.13;4992027;28;20838;-55
2023/07/31 06:00:45;;;;;;;2.90;2.70;;;;;;;-143.84;42.06;44963.38;4991499;28;20456;-55
2023/07/31 06:03:13;;;;;;;7.80;2.83;;;;;;;-143.84;42.19;44959.56;4992060;28;20484;-55
2023/07/31 06:05:40;;;;;;;3.27;2.47;;;;;;;-143.84;41.89;44969.09;4992020;28;20488;-55
2023/07/31 06:08:07;;;;;;;3.63;2.67;;;;;;;-143.84;41.91;44929.09;4992614;28;20927;-55
2023/07/31 06:10:34;;;;;;;21.57;3.30;;;;;;;-143.84;41.40;44953.88;4991956;28;20448;-55
2023/07/31 06:13:01;;;;;;;3.30;2.77;;;;;;;-143.84;42.11;44946.25;4992082;28;20441;-55
2023/07/31 06:15:30;;;;;;;2.87;2.67;;;;;;;-143.84;41.77;44980.53;4991823;28;20504;-55
2023/07/31 06:17:57;;;;;;;3.90;2.87;;;;;;;-143.84;42.38;44944.34;4991966;28;21316;-55
2023/07/31 06:20:24;;;;;;;3.03;2.73;;;;;;;-143.84;41.97;44946.25;4992153;28;20500;-55
2023/07/31 06:22:51;;;;;;;3.40;2.90;;;;;;;-143.84;41.83;44961.47;4991918;28;20445;-55
2023/07/31 06:25:18;;;;;;;3.90;3.20;;;;;;;-143.84;41.91;44940.53;4992198;28;20441;-55
2023/07/31 06:27:46;;;;;;;2.30;2.20;;;;;;;-143.84;42.28;44940.53;4992011;28;21240;-55
2023/07/31 06:30:13;;;;;;;3.10;2.90;;;;;;;-143.84;41.69;44931.00;4991989;28;20516;-55
2023/07/31 06:32:42;;;;;;;3.93;2.60;;;;;;;-143.84;42.28;44927.19;4991560;28;20441;-55
2023/07/31 06:35:10;;;;;;;3.70;2.77;;;;;;;-143.84;41.68;44955.75;4991627;28;20460;-55
2023/07/31 06:37:37;;;;;;;3.93;2.87;;;;;;;-143.84;42.65;44957.66;4991599;28;20874;-55
2023/07/31 06:40:07;;;;;;;6.77;2.57;;;;;;;-143.84;42.22;44932.91;4991422;28;20468;-55
2023/07/31 06:42:34;;;;;;;3.13;2.90;;;;;;;-143.84;42.85;44959.56;4991266;28;20449;-55
2023/07/31 06:45:02;;;;;;;3.13;2.90;;;;;;;-143.84;42.54;44984.31;4991222;28;20488;-55
2023/07/31 06:47:29;;;;;;;5.37;3.30;;;;;;;-143.84;43.33;44953.88;4991315;28;20955;-55
2023/07/31 06:49:57;;;;;;;5.50;2.70;;;;;;;-143.84;43.13;44948.16;4991181;28;20437;-55
2023/07/31 06:52:25;;;;;;;2.90;2.70;;;;;;;-143.84;43.04;44942.44;4991272;28;20513;-55
2023/07/31 06:55:04;;;;;;;3.87;3.57;;;;;;;-143.84;43.62;44955.75;4990965;28;20515;-55
2023/07/31 06:57:31;;;;;;;4.70;3.00;;;;;;;-143.84;43.58;44961.47;4991208;28;21171;-55
2023/07/31 06:59:58;;;;;;;3.57;3.37;;;;;;;-143.84;42.50;44955.75;4990892;28;20488;-55
2023/07/31 07:02:25;;;;;;;3.00;2.80;;;;;;;-143.84;42.40;44951.97;4991421;28;20999;-55
2023/07/31 07:04:52;;;;;;;4.00;3.70;;;;;;;-143.84;42.34;44976.72;4991013;28;20487;-55
2023/07/31 07:07:21;;;;;;;3.33;3.03;;;;;;;-143.84;43.01;44969.09;4990990;28;20854;-55
2023/07/31 07:09:48;;;;;;;3.70;3.50;;;;;;;-143.84;43.83;44934.81;4990577;28;20449;-55
2023/07/31 07:12:15;;;;;;;3.60;3.30;;;;;;;-143.84;43.25;44961.47;4990754;28;20445;-55
2023/07/31 07:14:42;;;;;;;3.10;2.90;;;;;;;-143.84;42.19;44944.34;4990878;28;20978;-55
2023/07/31 07:17:09;;;;;;;3.60;3.30;;;;;;;-143.84;42.48;44957.66;4990990;28;20784;-50
2023/07/31 07:19:35;;;;;;;3.10;2.90;;;;;;;-143.84;42.56;44921.50;4990530;28;20441;-50
2023/07/31 07:22:02;;;;;;;3.47;3.27;;;;;;;-143.84;42.21;44942.44;4989834;28;20456;-51
2023/07/31 07:24:31;;;;;;;3.50;3.30;;;;;;;-143.84;42.55;44959.56;4989879;28;20552;-50
2023/07/31 07:26:58;;;;;;;3.30;3.10;;;;;;;-143.84;42.22;44915.78;4989831;28;20450;-50
2023/07/31 07:29:25;;;;;;;3.13;2.93;;;;;;;-143.84;41.46;44931.00;4990586;28;20433;-50
2023/07/31 07:31:52;;;;;;;5.07;3.43;;;;;;;-143.84;42.18;44925.31;4990767;28;20983;-50
2023/07/31 07:34:19;;;;;;;3.53;3.23;;;;;;;-143.84;41.96;44936.72;4990692;28;20484;-50
2023/07/31 07:36:46;;;;;;;3.30;3.10;;;;;;;-143.84;41.35;44932.91;4990465;28;20528;-51
2023/07/31 07:39:13;;;;;;;4.47;3.30;;;;;;;-143.84;40.74;44919.59;4990127;28;20444;-50
2023/07/31 07:41:42;;;;;;;3.13;2.93;;;;;;;-143.84;40.53;44936.72;4990529;28;20437;-50
2023/07/31 07:44:09;;;;;;;4.80;3.70;;;;;;;-143.84;41.01;44917.69;4990208;28;20488;-50
2023/07/31 07:46:37;;;;;;;3.50;3.30;;;;;;;-143.84;41.26;44908.16;4990279;28;21032;-50
2023/07/31 07:49:04;;;;;;;3.83;3.40;;;;;;;-143.84;40.03;44898.66;4990386;28;20947;-49
2023/07/31 07:51:31;;;;;;;4.40;3.67;;;;;;;-143.84;39.93;44915.78;4990176;28;20453;-50
2023/07/31 07:53:58;;;;;;;3.80;3.50;;;;;;;-143.84;40.63;44898.66;4990111;28;20496;-49
2023/07/31 07:56:27;;;;;;;3.20;2.90;;;;;;;-143.84;40.91;44913.88;4990230;28;20452;-50
2023/07/31 07:58:56;;;;;;;5.33;3.33;;;;;;;-143.84;41.58;44904.34;4990093;28;20551;-49
2023/07/31 08:01:23;;;;;;;3.43;3.13;;;;;;;-143.84;40.80;44875.78;4990168;28;20507;-51
2023/07/31 08:03:51;;;;;;;7.30;4.47;;;;;;;-143.84;40.09;44881.50;4990035;28;20991;-50
2023/07/31 08:06:18;;;;;;;10.40;5.37;;;;;;;-143.84;40.06;44900.53;4989600;28;20615;-50
2023/07/31 08:08:45;;;;;;;15.63;5.87;;;;;;;-143.84;40.20;44923.41;4990341;28;20499;-50
2023/07/31 08:11:12;;;;;;;5.73;4.00;;;;;;;-143.84;41.47;44911.97;4989130;28;20445;-50
2023/07/31 08:13:39;;;;;;;9.63;6.33;;;;;;;-143.84;40.60;44913.88;4989966;28;20448;-50
2023/07/31 08:16:08;;;;;;;8.30;7.50;;;;;;;-143.84;41.88;44931.00;4989806;28;20434;-50
2023/07/31 08:18:35;;;;;;;13.63;6.47;;;;;;;-143.84;43.70;44929.09;4989849;28;20476;-49
2023/07/31 08:21:03;;;;;;;7.30;6.57;;;;;;;-143.84;42.43;44955.75;4989744;28;20460;-49
2023/07/31 08:23:30;;;;;;;11.80;7.10;;;;;;;-143.84;42.33;44957.66;4989548;28;20551;-50
2023/07/31 08:25:57;;;;;;;17.40;6.70;;;;;;;-143.84;43.81;44959.56;4990029;28;20500;-49
2023/07/31 08:28:24;;;;;;;13.53;6.00;;;;;;;-143.84;44.75;44944.34;4989937;28;20504;-49
2023/07/31 08:30:52;;;;;;;6.90;5.80;;;;;;;-143.84;45.36;44936.72;4989797;28;20882;-49
2023/07/31 08:33:20;;;;;;;7.40;5.07;;;;;;;-143.84;43.35;44940.53;4989677;28;20433;-49
2023/07/31 08:35:48;;;;;;;5.60;4.80;;;;;;;-143.84;43.70;44986.22;4989331;28;20465;-49
2023/07/31 08:38:15;;;;;;;8.67;4.07;;;;;;;-143.84;44.37;44957.66;4989470;28;20515;-48
2023/07/31 08:40:42;;;;;;;8.33;4.00;;;;;;;-143.84;44.55;44988.13;4989620;28;20437;-49
2023/07/31 08:43:10;;;;;;;6.23;4.87;;;;;;;-143.84;44.22;44976.72;4989639;28;20797;-49
2023/07/31 08:45:38;;;;;;;6.07;4.50;;;;;;;-143.84;44.91;44999.56;4989462;28;20994;-49
2023/07/31 08:48:06;;;;;;;5.60;4.97;;;;;;;-143.84;45.58;44978.63;4989760;28;20961;-49
2023/07/31 08:50:35;;;;;;;8.40;4.60;;;;;;;-143.84;46.48;44965.28;4989406;28;20455;-50
2023/07/31 08:53:02;;;;;;;6.60;3.60;;;;;;;-143.84;45.43;44988.13;4989488;28;20452;-49
2023/07/31 08:55:30;;;;;;;4.30;4.00;;;;;;;-143.84;45.15;45001.47;4989342;28;20884;-48
2023/07/31 08:57:58;;;;;;;4.63;2.97;;;;;;;-143.84;45.92;44999.56;4989461;28;20448;-49
2023/07/31 09:00:26;;;;;;;7.27;4.40;;;;;;;-143.84;46.32;45014.78;4989303;28;20498;-50
2023/07/31 09:02:58;;;;;;;6.13;3.40;;;;;;;-143.84;46.94;44991.94;4989317;28;20445;-49
2023/07/31 09:05:27;;;;;;;4.27;3.90;;;;;;;-143.84;49.22;44993.84;4988968;28;20915;-49
2023/07/31 09:07:57;;;;;;;6.87;5.03;;;;;;;-143.84;47.45;45005.28;4989679;28;20449;-49
2023/07/31 09:10:25;;;;;;;5.20;4.80;;;;;;;-143.84;48.25;45009.09;4989345;28;20504;-49
2023/07/31 09:12:53;;;;;;;6.47;4.80;;;;;;;-143.84;49.60;45009.09;4989095;28;20453;-49
2023/07/31 09:15:21;;;;;;;8.63;4.60;;;;;;;-143.84;49.69;45003.38;4989339;28;20457;-48
2023/07/31 09:17:48;;;;;;;3.70;3.40;;;;;;;-143.84;50.84;44999.56;4989040;28;20455;-48
2023/07/31 09:20:16;;;;;;;5.07;4.00;;;;;;;-143.84;52.47;45028.13;4989258;28;20457;-49
2023/07/31 09:22:44;;;;;;;8.63;3.70;;;;;;;-143.84;50.90;45022.41;4991903;28;20448;-49
2023/07/31 09:25:20;;;;;;;3.70;3.40;;;;;;;-143.84;50.64;45005.28;4992981;28;20529;-50
2023/07/31 09:27:48;;;;;;;4.53;4.00;;;;;;;-143.84;50.60;44997.66;4992768;28;20440;-49
2023/07/31 09:30:16;;;;;;;6.47;3.83;;;;;;;-143.84;51.98;44995.75;4992690;28;20449;-49
2023/07/31 09:32:44;;;;;;;3.93;3.63;;;;;;;-143.84;51.23;44993.84;4992982;28;20444;-50
2023/07/31 09:35:20;;;;;;;4.07;3.57;;;;;;;-143.84;51.52;44995.75;4992651;28;20533;-48
2023/07/31 09:37:50;;;;;;;9.80;4.27;;;;;;;-143.84;53.17;45030.03;4992759;28;20819;-50
2023/07/31 09:40:30;;;;;;;4.23;3.83;;;;;;;-143.84;53.24;45016.69;4992920;28;20463;-49
2023/07/31 09:43:01;;;;;;;4.40;4.07;;;;;;;-143.84;54.54;45005.28;4992687;28;20433;-49
2023/07/31 09:45:29;;;;;;;10.07;4.07;;;;;;;-143.84;53.26;44999.56;4992600;28;20491;-49
2023/07/31 09:47:57;;;;;;;4.00;3.80;;;;;;;-143.84;52.43;44993.84;4992571;28;20468;-49
2023/07/31 09:50:25;;;;;;;6.93;4.17;;;;;;;-143.84;51.98;44988.13;4992518;28;20445;-49
2023/07/31 09:52:53;;;;;;;6.03;4.13;;;;;;;-143.84;55.69;44991.94;4992535;28;20446;-49
2023/07/31 09:55:21;;;;;;;5.83;3.83;;;;;;;-143.84;50.87;45001.47;4992407;28;20445;-49
2023/07/31 09:57:50;;;;;;;4.67;3.77;;;;;;;-143.84;51.96;45005.28;4992297;28;20503;-50
2023/07/31 10:00:19;;;;;;;6.80;3.80;;;;;;;-143.84;49.28;44990.03;4992218;28;20441;-49
2023/07/31 10:02:48;;;;;;;3.50;3.20;;;;;;;-143.84;50.30;44997.66;4992171;28;20451;-49
2023/07/31 10:05:16;;;;;;;3.00;2.80;;;;;;;-143.84;49.31;44995.75;4991812;28;20503;-49
2023/07/31 10:07:46;;;;;;;3.43;3.13;;;;;;;-143.84;47.81;44965.28;4992320;28;20824;-49
2023/07/31 10:10:16;;;;;;;2.80;2.70;;;;;;;-143.84;46.54;44957.66;4992107;28;20444;-49
2023/07/31 10:12:46;;;;;;;3.10;2.90;;;;;;;-143.84;46.06;44971.00;4992021;28;20437;-50
2023/07/31 10:15:16;;;;;;;4.20;3.53;;;;;;;-143.84;45.87;44972.91;4991842;28;20480;-49
2023/07/31 10:17:44;;;;;;;3.60;3.33;;;;;;;-143.84;45.09;44955.75;4992130;28;20484;-49
2023/07/31 10:20:12;;;;;;;3.77;3.50;;;;;;;-143.84;45.55;44967.19;4991944;28;20863;-49
2023/07/31 10:22:40;;;;;;;10.70;3.67;;;;;;;-143.84;46.25;44929.09;4992195;28;20441;-49
2023/07/31 10:25:09;;;;;;;4.07;2.63;;;;;;;-143.84;44.88;44942.44;4991748;28;20507;-49
2023/07/31 10:27:37;;;;;;;3.77;3.50;;;;;;;-143.84;46.68;44971.00;4991464;28;20456;-49
2023/07/31 10:30:07;;;;;;;3.47;3.20;;;;;;;-143.84;46.04;44938.63;4991914;28;20896;-48
2023/07/31 10:32:37;;;;;;;4.70;3.20;;;;;;;-143.84;45.83;44929.09;4991121;28;20536;-49
2023/07/31 10:35:05;;;;;;;3.40;3.20;;;;;;;-143.84;45.33;44927.19;4991353;28;21014;-48
2023/07/31 10:37:38;;;;;;;3.90;3.60;;;;;;;-143.84;46.01;44932.91;4991530;28;20507;-49
2023/07/31 10:40:07;;;;;;;3.83;3.53;;;;;;;-143.84;45.87;44963.38;4991447;28;20497;-48
2023/07/31 10:42:36;;;;;;;3.03;2.83;;;;;;;-143.84;45.80;44931.00;4991569;28;20963;-49
2023/07/31 10:45:06;;;;;;;3.60;3.40;;;;;;;-143.84;46.74;44955.75;4991280;28;20516;-49
2023/07/31 10:47:39;;;;;;;3.90;3.70;;;;;;;-143.84;46.41;44951.97;4991260;28;20500;-49
2023/07/31 10:50:19;;;;;;;4.00;3.70;;;;;;;-143.84;47.16;44972.91;4991194;28;20512;-49
2023/07/31 10:52:51;;;;;;;5.27;3.63;;;;;;;-143.84;46.49;44957.66;4991153;28;20441;-48
2023/07/31 10:55:30;;;;;;;4.90;2.80;;;;;;;-143.84;44.58;44955.75;4991480;28;20812;-48
2023/07/31 10:57:59;;;;;;;4.63;2.90;;;;;;;-143.84;44.74;44980.53;4991369;28;20445;-49
2023/07/31 11:00:28;;;;;;;3.10;2.90;;;;;;;-143.84;44.69;44963.38;4991202;28;20528;-49
2023/07/31 11:03:01;;;;;;;4.07;3.77;;;;;;;-143.84;44.53;44972.91;4991132;28;20457;-49
2023/07/31 11:05:45;;;;;;;4.27;3.87;;;;;;;-143.84;43.85;44955.75;4990568;28;21010;-49
2023/07/31 11:08:17;;;;;;;3.90;3.60;;;;;;;-143.84;43.92;44969.09;4990928;28;20511;-49
2023/07/31 11:10:45;;;;;;;3.40;2.80;;;;;;;-143.84;43.90;44944.34;4990948;28;20456;-49
2023/07/31 11:13:13;;;;;;;2.90;2.73;;;;;;;-143.84;43.69;44948.16;4991018;28;21003;-50
2023/07/31 11:15:40;;;;;;;3.57;3.27;;;;;;;-143.84;43.63;44948.16;4990670;28;20437;-49
2023/07/31 11:18:10;;;;;;;2.90;2.70;;;;;;;-143.84;43.99;44965.28;4990882;28;20444;-48
2023/07/31 11:20:39;;;;;;;4.17;2.80;;;;;;;-143.84;43.94;44955.75;4990706;28;20453;-49
2023/07/31 11:23:08;;;;;;;3.37;3.07;;;;;;;-143.84;44.31;44959.56;4990465;28;20508;-49